Terminal Aerodrome Forecast
Issued by NWS

Home | Current Version | Previous Version | Text Only | Print | Product List | Glossary On
Versions: 1 2 3 4 5 6 7 8 9 10 11 12 13 14 15 16 17 18 19
000
FTUS43 KLSX 012300
TAFCPS
TAF
KCPS 012335Z 0200/0224 32014G24KT 6SM -RA BR OVC012
     FM020300 32022G32KT 6SM -SN OVC012
     FM021200 32015G25KT P6SM OVC012
     FM021500 30011KT P6SM BKN015
     FM022100 30007KT P6SM BKN035=

USA.gov is the U.S. government's official web portal to all federal, state and local government web resources and services.